createdAt,value
2022-11-28T00:09:49.000Z,4.4
2022-11-28T00:24:27.000Z,4.6
2022-11-28T00:39:04.000Z,5
2022-11-28T00:53:42.000Z,5.2
2022-11-28T01:08:17.000Z,4.7
2022-11-28T01:22:50.000Z,5
2022-11-28T01:37:26.000Z,4.8
2022-11-28T01:52:01.000Z,4.5
2022-11-28T02:06:39.000Z,6.5
2022-11-28T02:21:15.000Z,6.4
2022-11-28T02:35:46.000Z,7
2022-11-28T02:50:17.000Z,6.9
2022-11-28T03:04:52.000Z,7.2
2022-11-28T03:19:29.000Z,6.3
2022-11-28T03:34:05.000Z,6
2022-11-28T03:48:43.000Z,5.9
2022-11-28T04:03:20.000Z,6.2
2022-11-28T04:17:55.000Z,5.8
2022-11-28T04:32:31.000Z,6
2022-11-28T04:47:09.000Z,6.6
2022-11-28T05:01:46.000Z,5.9
2022-11-28T05:16:22.000Z,6.4
2022-11-28T05:30:57.000Z,5.4
2022-11-28T05:45:35.000Z,5.9
2022-11-28T06:00:08.000Z,5.6
2022-11-28T06:14:43.000Z,6
2022-11-28T06:29:19.000Z,5.8
2022-11-28T06:43:55.000Z,6.6
2022-11-28T06:58:33.000Z,6.5
2022-11-28T07:13:03.000Z,6.3
2022-11-28T07:27:32.000Z,6.6
2022-11-28T07:42:08.000Z,7.2
2022-11-28T07:56:42.000Z,8.6
2022-11-28T08:11:17.000Z,6
2022-11-28T08:25:53.000Z,6
2022-11-28T08:40:30.000Z,6.1
2022-11-28T08:55:07.000Z,5.6
2022-11-28T09:09:43.000Z,5.4
2022-11-28T09:24:20.000Z,5.6
2022-11-28T09:38:57.000Z,5
2022-11-28T09:53:33.000Z,6.9
2022-11-28T10:08:01.000Z,13
2022-11-28T10:22:36.000Z,9.4
2022-11-28T10:37:13.000Z,8.5
2022-11-28T10:51:50.000Z,9
2022-11-28T11:06:26.000Z,8.9
2022-11-28T11:21:03.000Z,8.7
2022-11-28T11:35:35.000Z,8.7
2022-11-28T11:50:09.000Z,9.8
2022-11-28T12:04:44.000Z,11.4
2022-11-28T12:19:20.000Z,12.7
2022-11-28T12:33:56.000Z,9.2
2022-11-28T12:48:31.000Z,9.4
2022-11-28T13:03:09.000Z,9.8
2022-11-28T13:17:45.000Z,9.9
2022-11-28T13:32:17.000Z,9.2
2022-11-28T13:46:54.000Z,11.1
2022-11-28T14:01:31.000Z,10.8
2022-11-28T14:16:08.000Z,13.5
2022-11-28T14:30:39.000Z,10.3
2022-11-28T14:45:14.000Z,8.5
2022-11-28T14:59:51.000Z,18.3
2022-11-28T15:14:28.000Z,10.8
2022-11-28T15:29:04.000Z,12.5
2022-11-28T15:43:34.000Z,12.2
2022-11-28T15:58:10.000Z,11.3
2022-11-28T16:12:43.000Z,12.9
2022-11-28T16:27:21.000Z,15.1
2022-11-28T16:41:59.000Z,18.4
2022-11-28T16:56:37.000Z,22.2
2022-11-28T17:11:09.000Z,17.5
2022-11-28T17:25:47.000Z,21.2
2022-11-28T17:40:22.000Z,18.1
2022-11-28T17:54:59.000Z,25
2022-11-28T18:09:33.000Z,22.8
2022-11-28T18:24:08.000Z,26.5
2022-11-28T18:38:46.000Z,23.6
2022-11-28T18:53:23.000Z,27.2
2022-11-28T19:07:54.000Z,32.6
2022-11-28T19:22:33.000Z,28.8
2022-11-28T19:37:04.000Z,25.5
2022-11-28T19:51:42.000Z,28.2
2022-11-28T20:06:19.000Z,25.9
2022-11-28T20:20:53.000Z,26.9
2022-11-28T20:35:31.000Z,25.2
2022-11-28T20:50:08.000Z,26.5
2022-11-28T21:04:47.000Z,23.4
2022-11-28T21:19:23.000Z,22.2
2022-11-28T21:34:01.000Z,26.1
2022-11-28T21:48:39.000Z,26.1
2022-11-28T22:03:17.000Z,23.4
2022-11-28T22:17:54.000Z,25.1
2022-11-28T22:32:32.000Z,25.2
2022-11-28T22:47:10.000Z,24.4
2022-11-28T23:01:47.000Z,24.3
2022-11-28T23:16:25.000Z,25.6
2022-11-28T23:31:02.000Z,27.1
2022-11-28T23:45:39.000Z,23.5
